• Join FlightAware (Why Join?)
  • Login
  • US Flag 
08:14AM EDT


 

Airport Tracker/Info


-or-


 

Live Flight TrackerFlight Track Log ✈ C-FHNX ✈ 04-Aug-2013 ✈ CYOW - CYYZ

Flight Track Log - Related Links

Times and Time Zones

All times are in EDT time to prevent confusion due to time zone crossing. See the C-FHNX flight status page for this flight to view local times or setup timezone preferences in your user account.

Time Position Orientation Groundspeed Altitude Reporting Facility
EDT Latitude Longitude Course Direction KTS MPH feet Rate Location/Type
12:18PM 45.2833 -75.6833 246° West 150 173 1,400  Level Montreal Center
12:19PM 45.2500 -75.7333 227° Southwest 200 230 3,100 2,100 Climbing Montreal Center
12:20PM 45.2333 -75.8333 257° West 270 311 5,600 3,240 Climbing Montreal Center
12:21PM 45.2333 -75.9500 270° West 260 299 9,600 3,000 Climbing Montreal Center
12:22PM 45.1627 -76.5177 247° West  Level FlightAware Approximate
12:22PM 45.2333 -76.0333 270° West 300 345 11,600  Level Montreal Center
12:23PM 45.1129 -76.6798 247° West  Level FlightAware Approximate
12:23PM 45.2333 -76.1833 270° West 330 380 14,800  Level Montreal Center
12:24PM 45.0629 -76.8416 246° West  Level FlightAware Approximate
12:24PM 45.2167 -76.3000 259° West 350 403 17,400  Level Montreal Center
12:25PM 45.1667 -76.4500 245° Southwest 360 414 20,400 2,280 Climbing Montreal Center
12:26PM 45.1333 -76.5667 248° West 360 414 22,000 1,800 Climbing Montreal Center
12:27PM 45.1000 -76.7000 251° West 360 414 24,000 2,340 Climbing Montreal Center
12:28PM 45.0667 -76.8500 253° West 360 414 26,700 1,980 Climbing Montreal Center
12:29PM 45.0167 -76.9667 239° Southwest 350 403 28,000 600 Climbing Montreal Center
12:30PM 44.9833 -77.0833 248° West 340 391 28,000  Level Montreal Center
12:31PM 44.9500 -77.2000 248° West 350 403 28,000  Level Montreal Center
12:32PM 44.9167 -77.3333 251° West 350 403 28,000  Level Montreal Center
12:33PM 44.8667 -77.4500 239° Southwest 360 414 28,000  Level Montreal Center
12:34PM 44.8333 -77.6167 254° West 400 460 28,000  Level Montreal Center
12:35PM 44.7667 -77.7667 238° Southwest 410 472 28,000  Level Montreal Center
12:36PM 44.7167 -77.9167 245° Southwest 410 472 28,000  Level Montreal Center
12:37PM 44.6667 -78.0667 245° Southwest 420 483 28,000  Level Montreal Center
12:38PM 44.6000 -78.2000 235° Southwest 420 483 28,000  Level Montreal Center
12:39PM 44.5500 -78.3333 242° Southwest 420 483 28,000  Level Montreal Center
12:40PM 44.4833 -78.4833 238° Southwest 420 483 28,000 -120 Level Montreal Center
12:41PM 44.4167 -78.6167 235° Southwest 420 483 27,800 -1,140 Descending Montreal Center
12:42PM 44.3667 -78.7500 242° Southwest 420 483 25,800 -2,160 Descending Montreal Center
12:43PM 44.3000 -78.8833 235° Southwest 400 460 23,500 -2,340 Descending Montreal Center
12:44PM 44.2333 -79.0000 231° Southwest 400 460 21,200 -2,400 Descending Montreal Center
12:45PM 44.1500 -79.1167 225° Southwest 390 449 18,700 -1,800 Descending Montreal Center
12:46PM 44.0833 -79.2000 222° Southwest 360 414 17,400 -1,320 Descending Toronto Center
12:47PM 44.0167 -79.2667 216° Southwest 330 380 16,000 -1,560 Descending Toronto Center
12:48PM 43.9333 -79.3500 216° Southwest 340 391 14,300 -1,740 Descending Toronto Center
12:49PM 43.8500 -79.4167 210° Southwest 350 403 12,600 -1,620 Descending Toronto Center
12:50PM 43.8167 -79.5333 248° West 320 368 11,100 -1,560 Descending Toronto Center
12:51PM 43.7667 -79.6333 235° Southwest 290 334 9,500 -1,500 Descending Toronto Center
12:52PM 43.7333 -79.7333 245° Southwest 280 322 8,200 -1,500 Descending Toronto Center
12:53PM 43.6833 -79.8000 224° Southwest 250 288 6,600 -1,560 Descending Toronto Center
12:54PM 43.6333 -79.8333 206° Southwest 240 276 5,100 -1,320 Descending Toronto Center
12:55PM 43.5833 -79.8667 206° Southwest 220 253 4,000 -840 Descending Toronto Center
12:56PM 43.5667 -79.8000 109° East 210 242 3,500 -780 Descending Toronto Center
12:57PM 43.6000 -79.7500 47° Northeast 190 219 2,500 -960 Descending Toronto Center
12:58PM 43.6333 -79.7000 47° Northeast 170 196 1,600 -840 Descending Toronto Center
12:59PM 43.6500 -79.6500 65° Northeast 150 173 900 -540 Descending Toronto Center
01:00PM 43.6833 -79.6333 20° North 90 104 600 -240 Descending Toronto Center
01:01PM 43.6833 -79.6167 90° East 40 46 500 -120 Descending Toronto Center